Golconda, IL (62938)

1:09 PM CDT on July 04, 2015 (GMT -0500)
Metropolis | | Change Station
CLOSE
Current Station
Airport
Location: Metropolis,
Elevation: 384 ft
Nearby Weather Stations

Elev 384 ft 37.18 °N, 88.75 °W | Updated 14 minutes ago

Mostly Cloudy
Mostly Cloudy
79 °F
Feels Like 79 °F
N
0
Wind Variable Wind from North

Today
High -- | Low -- °F
--% Chance of Precip.
Yesterday
High -- | Low -- °F
Precip. -- in
5:38 AM 8:18 PM
Waning Gibbous, 91% visible
Pressure 30.01 in
Visibility 10.0 miles
Clouds Scattered Clouds 2400 ft
Dew Point 69 °F
Humidity 71%
Rainfall 0.02 in
Snow Depth Not available.
UV 10 out of 12
Pollen 3.30 out of 12
Air Quality Not available.
Flu Activity Not available.
METAR KM30 041755Z AUTO 00000KT 10SM SCT024 26/21 A3001 RMK AO2 T02630207 10263 20201

More Conditions Fewer Conditions

Pressure 30.01 in
Visibility 10.0 miles
Clouds Scattered Clouds 2400 ft
Dew Point 69 °F
Humidity 71%
Rainfall 0.02 in
Snow Depth Not available.
UV 10 out of 12
Pollen 3.30 out of 12
Air Quality Not available.
Flu Activity Not available.
METAR KM30 041755Z AUTO 00000KT 10SM SCT024 26/21 A3001 RMK AO2 T02630207 10263 20201

More Conditions Fewer Conditions

10-Day Weather Forecast

×

Almanac

Astronomy

Jul. 04, 2015 Rise Set
Actual Time
Civil Twilight
Nautical Twilight
Astronomical Twilight
Moon
Length of Visible Light
Length of Day
Tomorrow will be .
, % of the Moon is Illuminated

Today's Extremes

State Highs State Lows

Community

WunderPhotos

Upload Photos

1,835,016 photos uploaded!

WunderBlogs® & News

Nearby

Air Quality

  Air Quality AQ Index Pollutant
Not available.

Snow Depth

Station Depth Elevation

Earthquake Activity

City Distance Mag. Time & Date
Minimum magnitude displayed is 2.5.

Coastal Water Temperatures

Place Temperature

Stations

Nearby Weather Stations

Station Location Temp. Windchill Dew Point Humidity Wind Precip. Elev Updated Type